Isabella — 9HSL7 — position and weather

sailwx.info

Track history (hours):
 
Tides and Currents Weather Stations Pressure Air Temp Water Temp Dewpoint Dewpoint Depression Visibility Wind Speed Wind Dir Waves Ship Positions

Isabella

Last reported at 2015-May-21 19:33 UTC. Time now 2015-May-23 02:42 UTC.
Position N 41°31' E 029°18'.

Length 244 m; draft 13.2 m.

Type: Tanker. MMSI: 215545000.

Date/timePositionNaut miles runAvg speedWind from/ knotsBaromVisibWave heightAir tempDewpointWater temp
2015-May-21 19:33N 41°31' E 029°18'192 9.1
2015-May-20 22:25N 42°53' E 033°12'3512.1
2015-May-20 19:33N 43°09' E 033°54'1212.3
2015-May-20 18:33N 43°14' E 034°09'1212.3
2015-May-20 17:33N 43°20' E 034°24'1212.3
2015-May-20 16:33N 43°25' E 034°40'1212.1
2015-May-20 15:33N 43°31' E 034°54'1211.8
2015-May-20 14:33N 43°36' E 035°09'1212.0
2015-May-20 13:33N 43°42' E 035°24'1312.6
2015-May-20 12:33N 43°47' E 035°39'1312.7
2015-May-20 11:33N 43°53' E 035°55'1212.2
2015-May-20 10:33N 43°58' E 036°10'1212.3
2015-May-20 09:34N 44°04' E 036°25'1312.5
2015-May-20 08:33N 44°10' E 036°41'1312.5
2015-May-20 07:29N 44°16' E 036°57'1212.3
2015-May-20 06:30N 44°22' E 037°12'1212.1
2015-May-20 05:33N 44°27' E 037°27'1211.8
2015-May-20 04:33N 44°33' E 037°40'3 3.2
2015-May-20 03:33N 44°36' E 037°43'1 1.0
2015-May-20 02:33N 44°37' E 037°43'2 1.7
2015-May-20 01:33N 44°36' E 037°41'2 2.2
2015-May-20 00:33N 44°37' E 037°38'1 0.4
2015-May-19 22:20N 44°38' E 037°38'0 0.0
2015-May-19 19:32N 44°38' E 037°38'0 0.0
2015-May-19 18:32N 44°38' E 037°38'0 0.0
2015-May-19 17:08N 44°38' E 037°38'0 0.0
2015-May-19 16:32N 44°38' E 037°38'0 0.1
2015-May-19 15:32N 44°38' E 037°38'0 0.1
2015-May-19 14:32N 44°38' E 037°38'0 0.0
2015-May-19 13:32N 44°38' E 037°38'0 0.0
2015-May-19 12:14N 44°38' E 037°38'0 0.0
2015-May-19 11:32N 44°38' E 037°38'0 0.1
2015-May-19 10:26N 44°38' E 037°38'2 1.7
2015-May-19 09:33N 44°36' E 037°39'1 1.2
2015-May-19 08:32N 44°35' E 037°39'8 8.3
2015-May-19 07:33N 44°34' E 037°50'5 4.5
2015-May-19 06:33N 44°34' E 037°57'0 0.0
2015-May-19 05:30N 44°34' E 037°57'0 0.0
2015-May-19 04:27N 44°34' E 037°57'0 0.0
2015-May-19 03:34N 44°34' E 037°57'0 0.0
2015-May-19 02:32N 44°34' E 037°57'0 0.0
2015-May-19 01:32N 44°34' E 037°57'0 0.0
2015-May-19 00:29N 44°34' E 037°57'0 0.0
2015-May-18 23:32N 44°34' E 037°57'0 0.0
2015-May-18 22:29N 44°34' E 037°57'0 0.0
2015-May-18 21:32N 44°34' E 037°57'0 0.0
2015-May-18 20:32N 44°34' E 037°57'0 0.0
2015-May-18 19:29N 44°34' E 037°57'0 0.0
2015-May-18 18:32N 44°34' E 037°57'0 0.0
2015-May-18 17:32N 44°34' E 037°57'0 0.0
2015-May-18 16:32N 44°34' E 037°57'0 0.0
2015-May-18 15:32N 44°34' E 037°57'0 0.0
2015-May-18 14:32N 44°34' E 037°57'0 0.1
2015-May-18 13:32N 44°34' E 037°57'0 0.0
2015-May-18 12:32N 44°34' E 037°57'0 0.0
2015-May-18 11:32N 44°34' E 037°57'0 0.0
2015-May-18 10:32N 44°34' E 037°57'0 0.0
2015-May-18 09:32N 44°34' E 037°57'0 0.0
2015-May-18 08:32N 44°34' E 037°57'0 0.0
2015-May-18 07:32N 44°34' E 037°57'0 0.0
2015-May-18 06:32N 44°34' E 037°57'0 0.0
2015-May-18 05:32N 44°34' E 037°57'0 0.0
2015-May-18 04:32N 44°34' E 037°57'0 0.0
2015-May-18 03:32N 44°34' E 037°57'0 0.0
2015-May-18 02:32N 44°34' E 037°57'0 0.0
2015-May-18 01:32N 44°34' E 037°57'0 0.0
2015-May-18 00:32N 44°34' E 037°57'0 0.0
2015-May-17 23:32N 44°34' E 037°57'0 0.0
2015-May-17 22:32N 44°34' E 037°57'0 0.0
2015-May-17 21:32N 44°34' E 037°57'0 0.0
2015-May-17 20:32N 44°34' E 037°57'0 0.0
2015-May-17 19:32N 44°34' E 037°57'0 0.0
2015-May-17 18:32N 44°34' E 037°57'0 0.1
2015-May-17 17:26N 44°34' E 037°57'0 0.1
2015-May-17 16:32N 44°34' E 037°57'0 0.1
2015-May-17 15:32N 44°34' E 037°57'0 0.1
2015-May-17 14:34N 44°34' E 037°57'0 0.2
2015-May-17 13:31N 44°34' E 037°57'3 2.8
2015-May-17 12:33N 44°33' E 037°53'7 6.8
2015-May-17 11:33N 44°33' E 037°44'4 3.9
2015-May-17 10:33N 44°37' E 037°43'1 0.8
2015-May-17 09:33N 44°37' E 037°43'0 0.5
2015-May-17 08:33N 44°36' E 037°42'0 0.1
2015-May-17 07:33N 44°36' E 037°42'0 0.2
2015-May-17 06:33N 44°36' E 037°43'1 0.6
2015-May-17 05:33N 44°36' E 037°43'1 0.6
2015-May-17 04:33N 44°36' E 037°44'0 0.3
2015-May-17 03:33N 44°35' E 037°43'1 1.2
2015-May-17 02:33N 44°37' E 037°43'5 4.7
2015-May-17 01:33N 44°32' E 037°41'10 9.8
2015-May-17 00:33N 44°25' E 037°32'1110.5
2015-May-16 23:32N 44°20' E 037°18'38 9.6
2015-May-16 19:33N 44°03' E 036°30'1210.1
2015-May-16 18:22N 43°59' E 036°15'910.1
2015-May-16 17:26N 43°55' E 036°03'1010.1
2015-May-16 16:25N 43°51' E 035°50'1110.1
2015-May-16 15:21N 43°46' E 035°36'910.2
2015-May-16 14:27N 43°43' E 035°24'2310.3
2015-May-16 12:10N 43°34' E 034°55'1 2.2
2015-May-16 11:33N 43°33' E 034°53'12 9.9
2015-May-16 10:22N 43°28' E 034°38'810.0
2015-May-16 09:33N 43°25' E 034°28'23910.3
2015-May-15 10:14N 41°39' E 029°37'710.3
2015-May-15 09:33N 41°33' E 029°30'1010.1
2015-May-15 08:33N 41°26' E 029°22'1010.2
2015-May-15 07:33N 41°18' E 029°13'180 7.5
2015-May-14 07:30N 40°01' E 025°38'3 1.4
2015-May-14 05:14N 39°60' E 025°41'2 1.4
2015-May-14 04:06N 39°59' E 025°43'9 1.9
2015-May-13 23:22N 40°03' E 025°33'1 1.1
2015-May-13 22:33N 40°02' E 025°34'1 1.2
2015-May-13 21:33N 40°01' E 025°35'  
Track history (hours):
 
Tides and Currents Weather Stations Pressure Air Temp Water Temp Dewpoint Dewpoint Depression Visibility Wind Speed Wind Dir Waves Ship Positions

Isabella

Last reported at 2015-May-21 19:33 UTC. Time now 2015-May-23 02:42 UTC.
Position N 41°31' E 029°18'.

Length 244 m; draft 13.2 m.

Type: Tanker. MMSI: 215545000.

Date/timePositionNaut miles runAvg speedWind from/ knotsBaromVisibWave heightAir tempDewpointWater temp
2015-May-21 19:33N 41°31' E 029°18'192 9.1
2015-May-20 22:25N 42°53' E 033°12'3512.1
2015-May-20 19:33N 43°09' E 033°54'1212.3
2015-May-20 18:33N 43°14' E 034°09'1212.3
2015-May-20 17:33N 43°20' E 034°24'1212.3
2015-May-20 16:33N 43°25' E 034°40'1212.1
2015-May-20 15:33N 43°31' E 034°54'1211.8
2015-May-20 14:33N 43°36' E 035°09'1212.0
2015-May-20 13:33N 43°42' E 035°24'1312.6
2015-May-20 12:33N 43°47' E 035°39'1312.7
2015-May-20 11:33N 43°53' E 035°55'1212.2
2015-May-20 10:33N 43°58' E 036°10'1212.3
2015-May-20 09:34N 44°04' E 036°25'1312.5
2015-May-20 08:33N 44°10' E 036°41'1312.5
2015-May-20 07:29N 44°16' E 036°57'1212.3
2015-May-20 06:30N 44°22' E 037°12'1212.1
2015-May-20 05:33N 44°27' E 037°27'1211.8
2015-May-20 04:33N 44°33' E 037°40'3 3.2
2015-May-20 03:33N 44°36' E 037°43'1 1.0
2015-May-20 02:33N 44°37' E 037°43'2 1.7
2015-May-20 01:33N 44°36' E 037°41'2 2.2
2015-May-20 00:33N 44°37' E 037°38'1 0.4
2015-May-19 22:20N 44°38' E 037°38'0 0.0
2015-May-19 19:32N 44°38' E 037°38'0 0.0
2015-May-19 18:32N 44°38' E 037°38'0 0.0
2015-May-19 17:08N 44°38' E 037°38'0 0.0
2015-May-19 16:32N 44°38' E 037°38'0 0.1
2015-May-19 15:32N 44°38' E 037°38'0 0.1
2015-May-19 14:32N 44°38' E 037°38'0 0.0
2015-May-19 13:32N 44°38' E 037°38'0 0.0
2015-May-19 12:14N 44°38' E 037°38'0 0.0
2015-May-19 11:32N 44°38' E 037°38'0 0.1
2015-May-19 10:26N 44°38' E 037°38'2 1.7
2015-May-19 09:33N 44°36' E 037°39'1 1.2
2015-May-19 08:32N 44°35' E 037°39'8 8.3
2015-May-19 07:33N 44°34' E 037°50'5 4.5
2015-May-19 06:33N 44°34' E 037°57'0 0.0
2015-May-19 05:30N 44°34' E 037°57'0 0.0
2015-May-19 04:27N 44°34' E 037°57'0 0.0
2015-May-19 03:34N 44°34' E 037°57'0 0.0
2015-May-19 02:32N 44°34' E 037°57'0 0.0
2015-May-19 01:32N 44°34' E 037°57'0 0.0
2015-May-19 00:29N 44°34' E 037°57'0 0.0
2015-May-18 23:32N 44°34' E 037°57'0 0.0
2015-May-18 22:29N 44°34' E 037°57'0 0.0
2015-May-18 21:32N 44°34' E 037°57'0 0.0
2015-May-18 20:32N 44°34' E 037°57'0 0.0
2015-May-18 19:29N 44°34' E 037°57'0 0.0
2015-May-18 18:32N 44°34' E 037°57'0 0.0
2015-May-18 17:32N 44°34' E 037°57'0 0.0
2015-May-18 16:32N 44°34' E 037°57'0 0.0
2015-May-18 15:32N 44°34' E 037°57'0 0.0
2015-May-18 14:32N 44°34' E 037°57'0 0.1
2015-May-18 13:32N 44°34' E 037°57'0 0.0
2015-May-18 12:32N 44°34' E 037°57'0 0.0
2015-May-18 11:32N 44°34' E 037°57'0 0.0
2015-May-18 10:32N 44°34' E 037°57'0 0.0
2015-May-18 09:32N 44°34' E 037°57'0 0.0
2015-May-18 08:32N 44°34' E 037°57'0 0.0
2015-May-18 07:32N 44°34' E 037°57'0 0.0
2015-May-18 06:32N 44°34' E 037°57'0 0.0
2015-May-18 05:32N 44°34' E 037°57'0 0.0
2015-May-18 04:32N 44°34' E 037°57'0 0.0
2015-May-18 03:32N 44°34' E 037°57'0 0.0
2015-May-18 02:32N 44°34' E 037°57'0 0.0
2015-May-18 01:32N 44°34' E 037°57'0 0.0
2015-May-18 00:32N 44°34' E 037°57'0 0.0
2015-May-17 23:32N 44°34' E 037°57'0 0.0
2015-May-17 22:32N 44°34' E 037°57'0 0.0
2015-May-17 21:32N 44°34' E 037°57'0 0.0
2015-May-17 20:32N 44°34' E 037°57'0 0.0
2015-May-17 19:32N 44°34' E 037°57'0 0.0
2015-May-17 18:32N 44°34' E 037°57'0 0.1
2015-May-17 17:26N 44°34' E 037°57'0 0.1
2015-May-17 16:32N 44°34' E 037°57'0 0.1
2015-May-17 15:32N 44°34' E 037°57'0 0.1
2015-May-17 14:34N 44°34' E 037°57'0 0.2
2015-May-17 13:31N 44°34' E 037°57'3 2.8
2015-May-17 12:33N 44°33' E 037°53'7 6.8
2015-May-17 11:33N 44°33' E 037°44'4 3.9
2015-May-17 10:33N 44°37' E 037°43'1 0.8
2015-May-17 09:33N 44°37' E 037°43'0 0.5
2015-May-17 08:33N 44°36' E 037°42'0 0.1
2015-May-17 07:33N 44°36' E 037°42'0 0.2
2015-May-17 06:33N 44°36' E 037°43'1 0.6
2015-May-17 05:33N 44°36' E 037°43'1 0.6
2015-May-17 04:33N 44°36' E 037°44'0 0.3
2015-May-17 03:33N 44°35' E 037°43'1 1.2
2015-May-17 02:33N 44°37' E 037°43'5 4.7
2015-May-17 01:33N 44°32' E 037°41'10 9.8
2015-May-17 00:33N 44°25' E 037°32'1110.5
2015-May-16 23:32N 44°20' E 037°18'38 9.6
2015-May-16 19:33N 44°03' E 036°30'1210.1
2015-May-16 18:22N 43°59' E 036°15'910.1
2015-May-16 17:26N 43°55' E 036°03'1010.1
2015-May-16 16:25N 43°51' E 035°50'1110.1
2015-May-16 15:21N 43°46' E 035°36'910.2
2015-May-16 14:27N 43°43' E 035°24'2310.3
2015-May-16 12:10N 43°34' E 034°55'1 2.2
2015-May-16 11:33N 43°33' E 034°53'12 9.9
2015-May-16 10:22N 43°28' E 034°38'810.0
2015-May-16 09:33N 43°25' E 034°28'23910.3
2015-May-15 10:14N 41°39' E 029°37'710.3
2015-May-15 09:33N 41°33' E 029°30'1010.1
2015-May-15 08:33N 41°26' E 029°22'1010.2
2015-May-15 07:33N 41°18' E 029°13'180 7.5
2015-May-14 07:30N 40°01' E 025°38'3 1.4
2015-May-14 05:14N 39°60' E 025°41'2 1.4
2015-May-14 04:06N 39°59' E 025°43'9 1.9
2015-May-13 23:22N 40°03' E 025°33'1 1.1
2015-May-13 22:33N 40°02' E 025°34'1 1.2
2015-May-13 21:33N 40°01' E 025°35'  

Dump ship's entire track history